Portada
METAR-TAF:

METAR-TAF

Aeroports :

Thoothukudi, Índia

latitud: 8-43-27N, longitud: 78-01-33E, altitud: 39 m

Observació

L'informe es va fer fa 13 hores i 49 minuts, a les 11:00 UTC
Vent 12 kt del Sud/Sud-Est
Temperatura 33°C
Humitat 53%
Pressió 1005 hPa
Visibilitat: 6000 m
Escasses núvols a una alçada de 2000 ft
Escasses núvols a una alçada de 3000 ft, Cumulonimbus.

METAR: VOTK 231100Z 16012KT 6000 FEW020 FEW030CB 33/22 Q1005 NOSIG

Hora: 06:19 (00:49 UTC)


TAF: manca

Observacions i pronòstics meteorològics de més de 4000 aeroports (METAR i TAF).

Les estacions disponibles són els punts grocs i vermells al mapa.

Posi el ratolí al punt desitjat per veure el nom de l'estació.

Feu clic per veure les observacions i els pronòstics meteorològics.

Per canviar el mapa: feu clic els botons verds amb una creu de color negre per apropar; al botó verd amb un guió per allunyar la imatge; o en les fletxes verdes per a mapes adjacents.


METAR-TAF: